Time;durP1;ratioP1;P1;durP2;ratioP2;P2;SDS_P1;SDS_P2;PMS_P1;PMS_P2;Temp;Humidity;BMP_temperature;BMP_pressure;BME280_temperature;BME280_humidity;BME280_pressure;Samples;Min_cycle;Max_cycle;Signal;HPM_P1;HPM_P2
2023/09/15 04:56:10;;;;;;;3.92;2.55;;;;;;;;;;5135238;27;20409;-82
2023/09/15 04:58:35;;;;;;;2.88;2.20;;;;;;;;;;5134395;27;20046;-82
2023/09/15 05:01:03;;;;;;;2.35;2.15;;;;;;;;;;5126369;27;20110;-83
2023/09/15 05:03:32;;;;;;;2.30;2.10;;;;;;;;;;5118781;27;20028;-82
2023/09/15 05:05:59;;;;;;;2.07;1.77;;;;;;;;;;5120645;27;20042;-82
2023/09/15 05:08:24;;;;;;;2.75;1.83;;;;;;;;;;5130731;27;20378;-82
2023/09/15 05:10:50;;;;;;;4.32;2.22;;;;;;;;;;5127906;27;20023;-83
2023/09/15 05:13:15;;;;;;;3.25;2.38;;;;;;;;;;5127501;27;20084;-82
2023/09/15 05:15:42;;;;;;;2.28;1.35;;;;;;;;;;5132189;27;20738;-83
2023/09/15 05:18:07;;;;;;;2.83;1.65;;;;;;;;;;5123986;27;20027;-80
2023/09/15 05:20:33;;;;;;;3.20;2.30;;;;;;;;;;5128166;27;20176;-82
2023/09/15 05:22:58;;;;;;;3.00;2.30;;;;;;;;;;5129558;27;20070;-78
2023/09/15 05:25:24;;;;;;;3.88;2.42;;;;;;;;;;5120982;27;20012;-82
2023/09/15 05:27:49;;;;;;;2.45;1.48;;;;;;;;;;5123832;27;20031;-82
2023/09/15 05:30:15;;;;;;;2.58;1.55;;;;;;;;;;5124029;27;20019;-84
2023/09/15 05:32:41;;;;;;;5.10;2.85;;;;;;;;;;5134662;27;20034;-82
2023/09/15 05:35:09;;;;;;;1.67;1.45;;;;;;;;;;5129784;27;20086;-83
2023/09/15 05:37:34;;;;;;;4.40;2.40;;;;;;;;;;5127802;27;20235;-82
2023/09/15 05:40:00;;;;;;;1.88;1.55;;;;;;;;;;5126850;27;20039;-82
2023/09/15 05:42:25;;;;;;;2.25;1.73;;;;;;;;;;5131980;27;20023;-85
2023/09/15 05:44:54;;;;;;;3.35;2.25;;;;;;;;;;5129257;27;20153;-81
2023/09/15 05:47:21;;;;;;;1.92;1.27;;;;;;;;;;5133218;27;20027;-81
2023/09/15 05:49:46;;;;;;;2.20;1.42;;;;;;;;;;5125013;27;20131;-83
2023/09/15 05:52:12;;;;;;;2.38;1.63;;;;;;;;;;5126326;27;20573;-83
2023/09/15 05:54:37;;;;;;;2.58;1.90;;;;;;;;;;5128884;27;20050;-82
2023/09/15 05:57:03;;;;;;;3.92;2.63;;;;;;;;;;5129539;27;20023;-84
2023/09/15 05:59:28;;;;;;;1.88;1.67;;;;;;;;;;5119945;27;20647;-84
2023/09/15 06:01:55;;;;;;;2.45;1.75;;;;;;;;;;5112747;27;20027;-84
2023/09/15 06:04:21;;;;;;;3.33;2.13;;;;;;;;;;5119266;27;20024;-79
2023/09/15 06:06:47;;;;;;;2.47;2.10;;;;;;;;;;5116649;27;20039;-81
2023/09/15 06:09:13;;;;;;;2.25;1.70;;;;;;;;;;5110273;27;20023;-82
2023/09/15 06:11:38;;;;;;;2.63;2.03;;;;;;;;;;5111613;27;20050;-80
2023/09/15 06:14:04;;;;;;;1.60;1.17;;;;;;;;;;5108806;27;20019;-80
2023/09/15 06:16:29;;;;;;;2.95;2.13;;;;;;;;;;5115075;27;20548;-80
2023/09/15 06:18:55;;;;;;;2.22;1.77;;;;;;;;;;5120691;27;20035;-79
2023/09/15 06:21:20;;;;;;;7.03;4.00;;;;;;;;;;5113581;27;20076;-81
2023/09/15 06:23:45;;;;;;;2.65;2.13;;;;;;;;;;5107585;27;20022;-82
2023/09/15 06:26:11;;;;;;;2.88;2.25;;;;;;;;;;5122483;27;20028;-82
2023/09/15 06:28:36;;;;;;;2.55;1.90;;;;;;;;;;5100179;27;20069;-81
2023/09/15 06:31:02;;;;;;;3.25;1.95;;;;;;;;;;5103788;27;20028;-82
2023/09/15 06:33:27;;;;;;;3.10;2.28;;;;;;;;;;5106071;27;20051;-82
2023/09/15 06:35:53;;;;;;;2.80;1.80;;;;;;;;;;5109489;27;20424;-81
2023/09/15 06:38:19;;;;;;;4.78;2.65;;;;;;;;;;5103168;27;20600;-81
2023/09/15 06:40:44;;;;;;;2.70;2.03;;;;;;;;;;5109054;27;20098;-80
2023/09/15 06:43:10;;;;;;;3.00;2.13;;;;;;;;;;5121446;27;20379;-81
2023/09/15 06:45:36;;;;;;;2.42;2.17;;;;;;;;;;5104497;27;20112;-80
2023/09/15 06:48:01;;;;;;;2.28;1.88;;;;;;;;;;5106428;27;20032;-80
2023/09/15 06:50:27;;;;;;;2.65;1.77;;;;;;;;;;5108715;27;20119;-81
2023/09/15 06:52:53;;;;;;;2.15;1.85;;;;;;;;;;5104302;28;20028;-81
2023/09/15 06:55:18;;;;;;;2.60;2.03;;;;;;;;;;5107801;27;20073;-81
2023/09/15 06:57:44;;;;;;;2.30;2.10;;;;;;;;;;5110271;27;20031;-81
2023/09/15 07:00:09;;;;;;;2.70;1.88;;;;;;;;;;5110127;27;20055;-81
2023/09/15 07:02:35;;;;;;;2.60;1.65;;;;;;;;;;5122107;27;20429;-83
2023/09/15 07:05:01;;;;;;;4.68;2.08;;;;;;;;;;5115037;27;20499;-81
2023/09/15 07:07:26;;;;;;;3.55;2.15;;;;;;;;;;5117446;27;20031;-80
2023/09/15 07:09:52;;;;;;;2.70;1.83;;;;;;;;;;5115868;27;20344;-81
2023/09/15 07:12:17;;;;;;;1.35;1.23;;;;;;;;;;5117742;27;20488;-80
2023/09/15 07:14:43;;;;;;;2.92;2.00;;;;;;;;;;5118363;27;20376;-82
2023/09/15 07:17:08;;;;;;;2.40;1.92;;;;;;;;;;5116076;27;20038;-81
2023/09/15 07:19:34;;;;;;;4.40;2.65;;;;;;;;;;5118159;27;20108;-81
2023/09/15 07:21:59;;;;;;;3.35;2.47;;;;;;;;;;5122523;27;20055;-80
2023/09/15 07:24:25;;;;;;;2.13;1.58;;;;;;;;;;5112048;27;20102;-81
2023/09/15 07:26:50;;;;;;;2.33;1.58;;;;;;;;;;5111621;27;20486;-80
2023/09/15 07:29:16;;;;;;;2.28;1.77;;;;;;;;;;5117516;27;20395;-80
2023/09/15 07:31:42;;;;;;;1.75;1.60;;;;;;;;;;5118946;27;20040;-81
2023/09/15 07:34:09;;;;;;;3.33;2.15;;;;;;;;;;5110379;27;20083;-80
2023/09/15 07:36:34;;;;;;;2.78;1.92;;;;;;;;;;5116326;27;20142;-80
2023/09/15 07:39:00;;;;;;;2.50;1.90;;;;;;;;;;5111562;28;20178;-80
2023/09/15 07:41:25;;;;;;;3.65;2.90;;;;;;;;;;5118731;27;20545;-80
2023/09/15 07:43:53;;;;;;;3.35;2.45;;;;;;;;;;5122587;27;20070;-81
2023/09/15 07:46:19;;;;;;;4.22;2.10;;;;;;;;;;5111043;27;20060;-81
2023/09/15 07:48:45;;;;;;;2.22;1.65;;;;;;;;;;5124029;27;20038;-82
2023/09/15 07:51:11;;;;;;;3.50;2.38;;;;;;;;;;5123427;27;20023;-81
2023/09/15 07:53:37;;;;;;;2.30;1.73;;;;;;;;;;5110290;27;20077;-81
2023/09/15 07:56:03;;;;;;;3.95;2.58;;;;;;;;;;5116103;27;20118;-79
2023/09/15 07:58:28;;;;;;;3.70;2.15;;;;;;;;;;5124942;27;20025;-81
2023/09/15 08:00:54;;;;;;;3.70;2.33;;;;;;;;;;5117977;27;20395;-80
2023/09/15 08:03:19;;;;;;;2.13;1.92;;;;;;;;;;5110861;27;20047;-83
2023/09/15 08:05:45;;;;;;;3.55;2.20;;;;;;;;;;5117715;27;20024;-83
2023/09/15 08:08:11;;;;;;;2.25;1.90;;;;;;;;;;5111758;28;20421;-83
2023/09/15 08:10:36;;;;;;;2.40;1.70;;;;;;;;;;5114336;27;20020;-80
2023/09/15 08:13:02;;;;;;;3.40;2.30;;;;;;;;;;5110618;27;20019;-81
2023/09/15 08:15:27;;;;;;;3.40;2.28;;;;;;;;;;5124795;27;20050;-80
2023/09/15 08:17:53;;;;;;;2.58;2.10;;;;;;;;;;5113461;27;20027;-79
2023/09/15 08:20:18;;;;;;;2.08;1.60;;;;;;;;;;5098080;28;20027;-81
2023/09/15 08:22:44;;;;;;;11.43;2.90;;;;;;;;;;5105432;28;20114;-80
2023/09/15 08:25:14;;;;;;;3.25;1.95;;;;;;;;;;5110162;27;20024;-81
2023/09/15 08:27:39;;;;;;;3.20;2.50;;;;;;;;;;5103198;28;20043;-80
2023/09/15 08:30:08;;;;;;;2.90;2.03;;;;;;;;;;5110123;27;20027;-80
2023/09/15 08:32:34;;;;;;;2.35;1.92;;;;;;;;;;5111928;28;20100;-80
2023/09/15 08:34:59;;;;;;;6.13;2.78;;;;;;;;;;5113353;27;20066;-81
2023/09/15 08:37:25;;;;;;;4.63;2.67;;;;;;;;;;5121790;27;20464;-81
2023/09/15 08:39:50;;;;;;;2.60;2.10;;;;;;;;;;5114124;27;21289;-80
2023/09/15 08:42:29;;;;;;;4.18;2.20;;;;;;;;;;5104229;28;20051;-79
2023/09/15 08:44:58;;;;;;;2.95;2.33;;;;;;;;;;5107772;28;20094;-80
2023/09/15 08:47:27;;;;;;;4.65;2.40;;;;;;;;;;5123878;28;20023;-79
2023/09/15 08:49:53;;;;;;;4.18;2.78;;;;;;;;;;5115622;28;20581;-82
2023/09/15 08:52:19;;;;;;;3.22;2.38;;;;;;;;;;5107021;28;20114;-80
2023/09/15 08:54:46;;;;;;;2.97;2.17;;;;;;;;;;5104083;28;20327;-81
2023/09/15 08:57:12;;;;;;;3.05;2.22;;;;;;;;;;5112499;28;20024;-80
2023/09/15 08:59:39;;;;;;;4.55;2.63;;;;;;;;;;5110561;28;20376;-81
2023/09/15 09:02:05;;;;;;;4.07;2.40;;;;;;;;;;5110914;28;20027;-80
2023/09/15 09:04:30;;;;;;;3.95;2.45;;;;;;;;;;5125008;28;20088;-80
2023/09/15 09:06:59;;;;;;;3.03;2.25;;;;;;;;;;5109566;28;20452;-81
2023/09/15 09:09:25;;;;;;;2.93;2.17;;;;;;;;;;5120957;28;20023;-81
2023/09/15 09:11:50;;;;;;;2.65;1.70;;;;;;;;;;5115332;28;20033;-80
2023/09/15 09:14:16;;;;;;;3.53;2.45;;;;;;;;;;5116895;28;20084;-81
2023/09/15 09:16:46;;;;;;;2.88;1.65;;;;;;;;;;5102694;28;20039;-81
2023/09/15 09:19:12;;;;;;;3.47;2.83;;;;;;;;;;5104507;28;20034;-81
2023/09/15 09:21:38;;;;;;;4.88;2.28;;;;;;;;;;5119971;28;20118;-82
2023/09/15 09:24:03;;;;;;;3.17;2.33;;;;;;;;;;5110058;28;20020;-81
2023/09/15 09:26:29;;;;;;;3.35;2.47;;;;;;;;;;5110655;28;20031;-82
2023/09/15 09:28:57;;;;;;;3.70;2.20;;;;;;;;;;5109464;28;20085;-81
2023/09/15 09:31:25;;;;;;;4.47;2.30;;;;;;;;;;5108635;28;20102;-81
2023/09/15 09:33:52;;;;;;;4.03;2.30;;;;;;;;;;5109672;28;20031;-81
2023/09/15 09:36:17;;;;;;;4.38;2.63;;;;;;;;;;5111210;28;20036;-80
2023/09/15 09:38:47;;;;;;;3.05;2.40;;;;;;;;;;5114894;27;20031;-82
2023/09/15 09:41:15;;;;;;;3.10;2.25;;;;;;;;;;5110914;28;20565;-81
2023/09/15 09:43:42;;;;;;;5.63;3.33;;;;;;;;;;5105999;27;20020;-84
2023/09/15 09:46:11;;;;;;;6.55;2.60;;;;;;;;;;5111723;27;20023;-85
2023/09/15 09:48:37;;;;;;;2.10;1.90;;;;;;;;;;5125328;27;20031;-85
2023/09/15 09:51:04;;;;;;;3.22;2.35;;;;;;;;;;5115405;27;20379;-84
2023/09/15 09:53:33;;;;;;;4.00;2.10;;;;;;;;;;5126431;27;20035;-83
2023/09/15 09:56:04;;;;;;;3.03;2.08;;;;;;;;;;5124714;27;20047;-84
2023/09/15 09:58:35;;;;;;;4.13;2.33;;;;;;;;;;5126676;27;20465;-85
2023/09/15 10:01:04;;;;;;;3.15;1.95;;;;;;;;;;5114283;28;20103;-84
2023/09/15 10:03:29;;;;;;;3.33;2.08;;;;;;;;;;5103442;27;20038;-84
2023/09/15 10:05:56;;;;;;;3.80;2.40;;;;;;;;;;5123369;27;20031;-84
2023/09/15 10:08:22;;;;;;;3.72;2.45;;;;;;;;;;5114415;27;20126;-85
2023/09/15 10:10:49;;;;;;;3.22;2.20;;;;;;;;;;5105649;27;20164;-83
2023/09/15 10:13:16;;;;;;;3.78;1.83;;;;;;;;;;5107152;28;20491;-84
2023/09/15 10:15:43;;;;;;;2.40;1.67;;;;;;;;;;5115370;27;20024;-84
2023/09/15 10:18:12;;;;;;;2.80;2.30;;;;;;;;;;5120541;27;20114;-84
2023/09/15 10:20:41;;;;;;;3.40;2.20;;;;;;;;;;5107234;27;20375;-83
2023/09/15 10:23:07;;;;;;;4.68;3.35;;;;;;;;;;5130388;27;20027;-84
2023/09/15 10:25:42;;;;;;;3.05;2.05;;;;;;;;;;5120568;27;20036;-85
2023/09/15 10:28:09;;;;;;;5.60;3.20;;;;;;;;;;5116964;27;20490;-86
2023/09/15 10:30:36;;;;;;;4.20;2.60;;;;;;;;;;5114503;27;20031;-85
2023/09/15 10:33:03;;;;;;;6.35;2.53;;;;;;;;;;5121682;27;20046;-86
2023/09/15 10:35:28;;;;;;;2.65;2.42;;;;;;;;;;5133947;27;20056;-86
2023/09/15 10:38:02;;;;;;;3.33;2.58;;;;;;;;;;5122391;27;20057;-85
2023/09/15 10:40:27;;;;;;;3.45;2.65;;;;;;;;;;5114831;27;20024;-84
2023/09/15 10:42:55;;;;;;;2.72;2.08;;;;;;;;;;5118347;27;20101;-85
2023/09/15 10:45:21;;;;;;;4.65;3.28;;;;;;;;;;5117443;27;20490;-84
2023/09/15 10:48:00;;;;;;;4.25;2.45;;;;;;;;;;5116496;27;20023;-83
2023/09/15 10:50:30;;;;;;;2.78;2.33;;;;;;;;;;5124356;27;20027;-84
2023/09/15 10:53:08;;;;;;;8.25;2.70;;;;;;;;;;5128571;27;20042;-83
2023/09/15 10:55:34;;;;;;;3.65;2.40;;;;;;;;;;5126276;27;20487;-83
2023/09/15 10:58:01;;;;;;;6.07;3.45;;;;;;;;;;5118069;27;20050;-82
2023/09/15 11:00:27;;;;;;;3.70;2.45;;;;;;;;;;5108452;27;20498;-83
2023/09/15 11:02:52;;;;;;;3.05;2.33;;;;;;;;;;5117190;27;20028;-82
2023/09/15 11:05:18;;;;;;;3.42;2.55;;;;;;;;;;5113667;27;20757;-83
2023/09/15 11:07:45;;;;;;;2.85;2.60;;;;;;;;;;5100389;27;20092;-83
2023/09/15 11:10:11;;;;;;;3.13;2.38;;;;;;;;;;5129737;27;20026;-83
2023/09/15 11:12:36;;;;;;;3.35;2.60;;;;;;;;;;5111508;27;20402;-81
2023/09/15 11:15:02;;;;;;;3.35;2.17;;;;;;;;;;5105514;27;20031;-82
2023/09/15 11:17:29;;;;;;;4.20;2.50;;;;;;;;;;5115039;27;20031;-86
2023/09/15 11:19:55;;;;;;;4.35;2.58;;;;;;;;;;5127761;27;20379;-82
2023/09/15 11:22:21;;;;;;;4.53;2.60;;;;;;;;;;5103732;27;20028;-85
2023/09/15 11:24:47;;;;;;;2.95;2.17;;;;;;;;;;5124957;27;20019;-83
2023/09/15 11:27:15;;;;;;;4.20;2.67;;;;;;;;;;5128675;27;20047;-84
2023/09/15 11:29:41;;;;;;;4.53;2.67;;;;;;;;;;5125515;27;20035;-85
2023/09/15 11:32:06;;;;;;;6.03;2.67;;;;;;;;;;5111695;27;20028;-86
2023/09/15 11:34:32;;;;;;;2.92;2.38;;;;;;;;;;5126537;27;20503;-85
2023/09/15 11:36:59;;;;;;;3.10;1.73;;;;;;;;;;5111947;27;20035;-87
2023/09/15 11:39:28;;;;;;;3.70;2.70;;;;;;;;;;5123332;27;20023;-84
2023/09/15 11:41:54;;;;;;;4.10;2.22;;;;;;;;;;5121148;27;20023;-82
2023/09/15 11:44:28;;;;;;;3.70;2.40;;;;;;;;;;5125855;27;20467;-86
2023/09/15 11:46:55;;;;;;;4.30;2.95;;;;;;;;;;5126598;27;20030;-85
2023/09/15 11:49:22;;;;;;;3.35;2.50;;;;;;;;;;5125050;27;20023;-86
2023/09/15 11:51:48;;;;;;;4.53;2.47;;;;;;;;;;5115940;27;20506;-85
2023/09/15 11:54:14;;;;;;;4.28;2.90;;;;;;;;;;5109931;27;20382;-86
2023/09/15 11:56:40;;;;;;;3.20;2.17;;;;;;;;;;5125955;27;20367;-86
2023/09/15 11:59:07;;;;;;;4.55;2.63;;;;;;;;;;5121191;27;20028;-86
2023/09/15 12:01:32;;;;;;;3.65;2.42;;;;;;;;;;5112063;27;20091;-87
2023/09/15 12:03:59;;;;;;;3.65;2.20;;;;;;;;;;5107150;27;20027;-85
2023/09/15 12:06:26;;;;;;;3.60;2.10;;;;;;;;;;5104518;27;20387;-84
2023/09/15 12:08:52;;;;;;;7.13;3.22;;;;;;;;;;5103703;27;20028;-82
2023/09/15 12:11:19;;;;;;;4.18;3.00;;;;;;;;;;5106157;28;20081;-81
2023/09/15 12:13:51;;;;;;;4.78;3.22;;;;;;;;;;5099599;27;20027;-81
2023/09/15 12:16:25;;;;;;;4.63;3.17;;;;;;;;;;5104525;27;20109;-82
2023/09/15 12:18:51;;;;;;;3.70;2.20;;;;;;;;;;5095870;28;20031;-82
2023/09/15 12:21:16;;;;;;;4.80;2.60;;;;;;;;;;5096328;28;20113;-80
2023/09/15 12:23:43;;;;;;;3.15;2.47;;;;;;;;;;5103435;27;20034;-82
2023/09/15 12:26:09;;;;;;;3.58;2.65;;;;;;;;;;5120258;27;20031;-84
2023/09/15 12:28:35;;;;;;;3.25;2.30;;;;;;;;;;5118755;27;20060;-84
2023/09/15 12:31:00;;;;;;;5.45;3.22;;;;;;;;;;5111526;27;20123;-83
2023/09/15 12:33:26;;;;;;;3.85;2.53;;;;;;;;;;5122624;27;20027;-84
2023/09/15 12:35:52;;;;;;;4.15;2.78;;;;;;;;;;5100700;27;20042;-84
2023/09/15 12:38:18;;;;;;;3.90;2.35;;;;;;;;;;5105340;28;20534;-82
2023/09/15 12:40:48;;;;;;;3.88;2.33;;;;;;;;;;5101878;27;20054;-83
2023/09/15 12:43:14;;;;;;;4.60;2.85;;;;;;;;;;5110402;28;20356;-83
2023/09/15 12:45:40;;;;;;;2.78;2.17;;;;;;;;;;5096984;28;20020;-82
2023/09/15 12:48:05;;;;;;;4.18;2.55;;;;;;;;;;5105645;28;20031;-82
2023/09/15 12:50:34;;;;;;;3.90;2.55;;;;;;;;;;5115467;28;20359;-82
2023/09/15 12:52:59;;;;;;;3.37;2.70;;;;;;;;;;5120502;28;20032;-83
2023/09/15 12:55:26;;;;;;;3.40;2.10;;;;;;;;;;5101252;28;20032;-83
2023/09/15 12:57:52;;;;;;;4.38;2.83;;;;;;;;;;5099855;28;20023;-84
2023/09/15 13:00:18;;;;;;;5.10;2.90;;;;;;;;;;5103825;28;20039;-82
2023/09/15 13:02:43;;;;;;;4.35;2.60;;;;;;;;;;5109007;28;20051;-82
2023/09/15 13:05:09;;;;;;;3.92;2.70;;;;;;;;;;5104725;28;20115;-82
2023/09/15 13:07:37;;;;;;;4.28;2.80;;;;;;;;;;5107624;27;20030;-81
2023/09/15 13:10:04;;;;;;;3.78;2.53;;;;;;;;;;5101695;27;20356;-82
2023/09/15 13:12:30;;;;;;;4.03;2.22;;;;;;;;;;5105583;27;20028;-82
2023/09/15 13:14:56;;;;;;;5.03;3.25;;;;;;;;;;5107693;27;20087;-82
2023/09/15 13:17:21;;;;;;;3.45;2.70;;;;;;;;;;5106899;27;20480;-81
2023/09/15 13:19:47;;;;;;;5.72;2.63;;;;;;;;;;5098586;27;20063;-81
2023/09/15 13:22:12;;;;;;;5.63;3.03;;;;;;;;;;5105039;27;20081;-82
2023/09/15 13:24:38;;;;;;;2.42;1.88;;;;;;;;;;5108238;28;20138;-86
2023/09/15 13:27:04;;;;;;;4.47;2.95;;;;;;;;;;5109371;27;20028;-85
2023/09/15 13:29:29;;;;;;;3.15;2.17;;;;;;;;;;5105694;27;20480;-87
2023/09/15 13:31:55;;;;;;;5.00;3.33;;;;;;;;;;5113717;27;20047;-82
2023/09/15 13:34:21;;;;;;;3.08;2.13;;;;;;;;;;5111304;27;20030;-84
2023/09/15 13:36:46;;;;;;;7.30;2.53;;;;;;;;;;5107561;27;20054;-82
2023/09/15 13:39:12;;;;;;;4.97;2.63;;;;;;;;;;5109719;27;20035;-82
2023/09/15 13:41:38;;;;;;;3.17;2.15;;;;;;;;;;5114902;27;20099;-82
2023/09/15 13:44:03;;;;;;;5.30;2.30;;;;;;;;;;5117736;27;20095;-84
2023/09/15 13:46:30;;;;;;;3.83;2.70;;;;;;;;;;5122159;27;20480;-82
2023/09/15 13:48:55;;;;;;;4.07;2.83;;;;;;;;;;5124644;27;20527;-83
2023/09/15 13:51:21;;;;;;;4.63;2.75;;;;;;;;;;5119748;27;20117;-83
2023/09/15 13:53:46;;;;;;;7.53;3.33;;;;;;;;;;5123484;27;20023;-84
2023/09/15 13:56:12;;;;;;;4.93;3.00;;;;;;;;;;5127097;27;20035;-84
2023/09/15 13:58:40;;;;;;;4.25;2.83;;;;;;;;;;5112880;27;20023;-83
2023/09/15 14:01:07;;;;;;;3.55;2.33;;;;;;;;;;5127716;27;20491;-82
2023/09/15 14:03:32;;;;;;;4.32;2.65;;;;;;;;;;5123599;27;20023;-83
2023/09/15 14:05:58;;;;;;;4.70;2.45;;;;;;;;;;5127823;27;20026;-87
2023/09/15 14:08:24;;;;;;;3.47;2.47;;;;;;;;;;5117882;27;20019;-84
2023/09/15 14:10:51;;;;;;;3.90;3.00;;;;;;;;;;5115664;27;20495;-85
2023/09/15 14:13:17;;;;;;;4.82;3.08;;;;;;;;;;5116565;27;20429;-83
2023/09/15 14:15:44;;;;;;;4.70;2.65;;;;;;;;;;5121576;27;20465;-84
2023/09/15 14:18:10;;;;;;;3.67;2.58;;;;;;;;;;5109152;27;20092;-83
2023/09/15 14:20:36;;;;;;;4.97;2.85;;;;;;;;;;5126893;27;20031;-83
2023/09/15 14:23:02;;;;;;;3.15;2.22;;;;;;;;;;5119318;27;20132;-81
2023/09/15 14:25:27;;;;;;;5.43;3.40;;;;;;;;;;5106576;27;20026;-82
2023/09/15 14:27:53;;;;;;;2.78;2.13;;;;;;;;;;5114553;27;20024;-81
2023/09/15 14:30:18;;;;;;;5.78;3.10;;;;;;;;;;5124690;27;20026;-85
2023/09/15 14:32:44;;;;;;;3.13;2.38;;;;;;;;;;5126672;27;20436;-83
2023/09/15 14:35:09;;;;;;;4.03;2.63;;;;;;;;;;5131839;27;20015;-83
2023/09/15 14:37:35;;;;;;;4.35;3.00;;;;;;;;;;5110047;27;20039;-83
2023/09/15 14:40:03;;;;;;;4.43;2.42;;;;;;;;;;5114973;27;20487;-83
2023/09/15 14:42:29;;;;;;;5.85;4.03;;;;;;;;;;5124052;27;20463;-84
2023/09/15 14:44:55;;;;;;;5.47;3.63;;;;;;;;;;5120455;27;20148;-82
2023/09/15 14:47:20;;;;;;;4.25;2.83;;;;;;;;;;5117847;27;20114;-82
2023/09/15 14:49:46;;;;;;;5.22;2.95;;;;;;;;;;5104889;27;20559;-82
2023/09/15 14:52:11;;;;;;;4.22;3.08;;;;;;;;;;5125642;27;20031;-83
2023/09/15 14:54:37;;;;;;;4.13;3.05;;;;;;;;;;5118153;27;20048;-83
2023/09/15 14:57:03;;;;;;;4.50;2.72;;;;;;;;;;5121820;27;20030;-81
2023/09/15 14:59:28;;;;;;;3.90;2.55;;;;;;;;;;5109356;27;20023;-82
2023/09/15 15:01:55;;;;;;;5.18;3.42;;;;;;;;;;5112045;27;20077;-85
2023/09/15 15:04:22;;;;;;;3.33;2.58;;;;;;;;;;5110954;27;20051;-84
2023/09/15 15:06:48;;;;;;;4.40;1.95;;;;;;;;;;5100581;27;20023;-84
2023/09/15 15:09:14;;;;;;;3.25;2.40;;;;;;;;;;5124331;27;20025;-83
2023/09/15 15:11:40;;;;;;;5.05;3.03;;;;;;;;;;5110447;27;20491;-83
2023/09/15 15:14:05;;;;;;;5.80;3.05;;;;;;;;;;5103011;27;20066;-82
2023/09/15 15:16:31;;;;;;;2.45;2.15;;;;;;;;;;5102061;27;20034;-83
2023/09/15 15:18:57;;;;;;;4.32;3.50;;;;;;;;;;5114525;27;20054;-83
2023/09/15 15:21:23;;;;;;;4.00;2.65;;;;;;;;;;5109582;27;20098;-80
2023/09/15 15:23:48;;;;;;;7.38;3.15;;;;;;;;;;5104147;27;20051;-83
2023/09/15 15:26:14;;;;;;;4.03;2.95;;;;;;;;;;5112268;27;20024;-82
2023/09/15 15:28:39;;;;;;;4.65;2.72;;;;;;;;;;5110426;28;20034;-83
2023/09/15 15:31:14;;;;;;;3.97;2.58;;;;;;;;;;5106791;27;20080;-82
2023/09/15 15:33:41;;;;;;;5.78;3.05;;;;;;;;;;5117011;27;20044;-81
2023/09/15 15:36:06;;;;;;;4.65;3.00;;;;;;;;;;5113995;27;20023;-82
2023/09/15 15:38:33;;;;;;;4.00;2.88;;;;;;;;;;5115144;27;20437;-82
2023/09/15 15:41:01;;;;;;;3.38;2.42;;;;;;;;;;5099990;27;20050;-82
2023/09/15 15:43:26;;;;;;;4.10;2.85;;;;;;;;;;5123816;27;20474;-81
2023/09/15 15:46:00;;;;;;;4.07;2.70;;;;;;;;;;5112110;27;20111;-82
2023/09/15 15:48:28;;;;;;;3.42;2.85;;;;;;;;;;5095446;28;20115;-82
2023/09/15 15:50:53;;;;;;;4.60;2.72;;;;;;;;;;5105110;27;20035;-82
2023/09/15 15:53:19;;;;;;;3.90;2.90;;;;;;;;;;5100827;27;20028;-82
2023/09/15 15:55:44;;;;;;;4.10;2.67;;;;;;;;;;5096949;27;20039;-82
2023/09/15 15:58:10;;;;;;;4.32;3.00;;;;;;;;;;5099843;27;20354;-82
2023/09/15 16:00:36;;;;;;;5.47;2.97;;;;;;;;;;5134051;27;20076;-82
2023/09/15 16:03:02;;;;;;;6.78;3.97;;;;;;;;;;5113046;27;20035;-81
2023/09/15 16:05:30;;;;;;;4.60;3.15;;;;;;;;;;5100343;27;20027;-82
2023/09/15 16:07:55;;;;;;;6.13;3.53;;;;;;;;;;5109714;27;20027;-82
2023/09/15 16:10:21;;;;;;;6.63;3.45;;;;;;;;;;5102745;27;20595;-84
